sensor_id;sensor_type;location;lat;lon;timestamp;P1;durP1;ratioP1;P2;durP2;ratioP2
62030;SDS011;62035;52.094;5.112;2023-05-21T00:02:18;6.13;;;2.03;;
62030;SDS011;62035;52.094;5.112;2023-05-21T00:04:46;6.45;;;2.55;;
62030;SDS011;62035;52.094;5.112;2023-05-21T00:07:14;5.55;;;2.63;;
62030;SDS011;62035;52.094;5.112;2023-05-21T00:09:41;3.75;;;2.30;;
62030;SDS011;62035;52.094;5.112;2023-05-21T00:12:10;4.07;;;2.38;;
62030;SDS011;62035;52.094;5.112;2023-05-21T00:14:38;3.72;;;2.38;;
62030;SDS011;62035;52.094;5.112;2023-05-21T00:17:06;5.80;;;2.40;;
62030;SDS011;62035;52.094;5.112;2023-05-21T00:19:33;9.27;;;2.83;;
62030;SDS011;62035;52.094;5.112;2023-05-21T00:22:01;3.88;;;2.20;;
62030;SDS011;62035;52.094;5.112;2023-05-21T00:24:29;7.18;;;2.53;;
62030;SDS011;62035;52.094;5.112;2023-05-21T00:26:56;7.90;;;2.40;;
62030;SDS011;62035;52.094;5.112;2023-05-21T00:29:27;4.75;;;2.50;;
62030;SDS011;62035;52.094;5.112;2023-05-21T00:31:54;4.65;;;2.35;;
62030;SDS011;62035;52.094;5.112;2023-05-21T00:34:22;5.88;;;2.42;;
62030;SDS011;62035;52.094;5.112;2023-05-21T00:36:49;5.10;;;2.20;;
62030;SDS011;62035;52.094;5.112;2023-05-21T00:39:18;12.73;;;2.33;;
62030;SDS011;62035;52.094;5.112;2023-05-21T00:41:46;3.65;;;2.45;;
62030;SDS011;62035;52.094;5.112;2023-05-21T00:44:14;7.38;;;2.47;;
62030;SDS011;62035;52.094;5.112;2023-05-21T00:46:44;5.43;;;2.90;;
62030;SDS011;62035;52.094;5.112;2023-05-21T00:49:13;6.90;;;2.58;;
62030;SDS011;62035;52.094;5.112;2023-05-21T00:51:41;5.30;;;2.75;;
62030;SDS011;62035;52.094;5.112;2023-05-21T00:54:10;6.45;;;2.90;;
62030;SDS011;62035;52.094;5.112;2023-05-21T00:56:38;6.25;;;2.80;;
62030;SDS011;62035;52.094;5.112;2023-05-21T00:59:05;3.58;;;2.42;;
62030;SDS011;62035;52.094;5.112;2023-05-21T01:01:33;3.70;;;2.40;;
62030;SDS011;62035;52.094;5.112;2023-05-21T01:04:04;4.05;;;2.40;;
62030;SDS011;62035;52.094;5.112;2023-05-21T01:06:31;6.38;;;2.67;;
62030;SDS011;62035;52.094;5.112;2023-05-21T01:09:00;6.18;;;3.10;;
62030;SDS011;62035;52.094;5.112;2023-05-21T01:11:32;5.55;;;2.42;;
62030;SDS011;62035;52.094;5.112;2023-05-21T01:14:05;8.40;;;2.88;;
62030;SDS011;62035;52.094;5.112;2023-05-21T01:16:36;5.68;;;2.60;;
62030;SDS011;62035;52.094;5.112;2023-05-21T01:19:06;5.50;;;2.60;;
62030;SDS011;62035;52.094;5.112;2023-05-21T01:21:38;6.88;;;2.70;;
62030;SDS011;62035;52.094;5.112;2023-05-21T01:24:17;5.43;;;3.00;;
62030;SDS011;62035;52.094;5.112;2023-05-21T01:26:45;5.78;;;2.63;;
62030;SDS011;62035;52.094;5.112;2023-05-21T01:29:13;4.75;;;3.05;;
62030;SDS011;62035;52.094;5.112;2023-05-21T01:31:43;5.93;;;3.00;;
62030;SDS011;62035;52.094;5.112;2023-05-21T01:34:26;5.32;;;2.97;;
62030;SDS011;62035;52.094;5.112;2023-05-21T01:37:07;5.03;;;2.85;;
62030;SDS011;62035;52.094;5.112;2023-05-21T01:39:46;5.38;;;3.03;;
62030;SDS011;62035;52.094;5.112;2023-05-21T01:42:23;7.13;;;3.15;;
62030;SDS011;62035;52.094;5.112;2023-05-21T01:44:53;4.18;;;3.10;;
62030;SDS011;62035;52.094;5.112;2023-05-21T01:47:23;7.43;;;3.00;;
62030;SDS011;62035;52.094;5.112;2023-05-21T01:49:55;6.65;;;2.90;;
62030;SDS011;62035;52.094;5.112;2023-05-21T01:52:23;4.75;;;2.88;;
62030;SDS011;62035;52.094;5.112;2023-05-21T01:54:52;5.55;;;3.13;;
62030;SDS011;62035;52.094;5.112;2023-05-21T01:57:20;6.82;;;3.05;;
62030;SDS011;62035;52.094;5.112;2023-05-21T01:59:47;4.97;;;2.92;;
62030;SDS011;62035;52.094;5.112;2023-05-21T02:02:15;6.63;;;3.00;;
62030;SDS011;62035;52.094;5.112;2023-05-21T02:04:43;5.85;;;3.10;;
62030;SDS011;62035;52.094;5.112;2023-05-21T02:07:11;9.63;;;3.08;;
62030;SDS011;62035;52.094;5.112;2023-05-21T02:09:39;7.25;;;3.22;;
62030;SDS011;62035;52.094;5.112;2023-05-21T02:12:08;5.07;;;2.85;;
62030;SDS011;62035;52.094;5.112;2023-05-21T02:14:35;5.28;;;3.13;;
62030;SDS011;62035;52.094;5.112;2023-05-21T02:17:04;7.40;;;3.70;;
62030;SDS011;62035;52.094;5.112;2023-05-21T02:19:32;7.72;;;3.30;;
62030;SDS011;62035;52.094;5.112;2023-05-21T02:22:00;5.47;;;2.90;;
62030;SDS011;62035;52.094;5.112;2023-05-21T02:24:27;4.97;;;3.10;;
62030;SDS011;62035;52.094;5.112;2023-05-21T02:26:56;3.80;;;2.72;;
62030;SDS011;62035;52.094;5.112;2023-05-21T02:29:25;4.53;;;2.95;;
62030;SDS011;62035;52.094;5.112;2023-05-21T02:31:52;9.88;;;3.40;;
62030;SDS011;62035;52.094;5.112;2023-05-21T02:34:20;7.40;;;3.15;;
62030;SDS011;62035;52.094;5.112;2023-05-21T02:36:49;8.43;;;3.10;;
62030;SDS011;62035;52.094;5.112;2023-05-21T02:39:17;7.88;;;3.28;;
62030;SDS011;62035;52.094;5.112;2023-05-21T02:41:45;5.20;;;3.25;;
62030;SDS011;62035;52.094;5.112;2023-05-21T02:44:13;5.75;;;3.00;;
62030;SDS011;62035;52.094;5.112;2023-05-21T02:46:42;6.20;;;3.78;;
62030;SDS011;62035;52.094;5.112;2023-05-21T02:49:10;5.40;;;3.67;;
62030;SDS011;62035;52.094;5.112;2023-05-21T02:51:38;14.95;;;4.05;;
62030;SDS011;62035;52.094;5.112;2023-05-21T02:54:05;5.78;;;3.30;;
62030;SDS011;62035;52.094;5.112;2023-05-21T02:56:33;8.00;;;3.58;;
62030;SDS011;62035;52.094;5.112;2023-05-21T02:59:00;6.95;;;3.63;;
62030;SDS011;62035;52.094;5.112;2023-05-21T03:01:28;6.15;;;3.33;;
62030;SDS011;62035;52.094;5.112;2023-05-21T03:03:57;8.68;;;3.78;;
62030;SDS011;62035;52.094;5.112;2023-05-21T03:06:24;8.07;;;3.78;;
62030;SDS011;62035;52.094;5.112;2023-05-21T03:08:52;5.35;;;3.45;;
62030;SDS011;62035;52.094;5.112;2023-05-21T03:11:20;6.38;;;3.50;;
62030;SDS011;62035;52.094;5.112;2023-05-21T03:13:47;4.93;;;3.03;;
62030;SDS011;62035;52.094;5.112;2023-05-21T03:16:15;5.65;;;3.70;;
62030;SDS011;62035;52.094;5.112;2023-05-21T03:18:42;6.97;;;3.95;;
62030;SDS011;62035;52.094;5.112;2023-05-21T03:21:12;7.00;;;3.88;;
62030;SDS011;62035;52.094;5.112;2023-05-21T03:23:40;5.30;;;3.50;;
62030;SDS011;62035;52.094;5.112;2023-05-21T03:26:07;6.15;;;3.53;;
62030;SDS011;62035;52.094;5.112;2023-05-21T03:28:36;7.63;;;3.45;;
62030;SDS011;62035;52.094;5.112;2023-05-21T03:31:03;8.45;;;3.70;;
62030;SDS011;62035;52.094;5.112;2023-05-21T03:33:31;6.45;;;3.22;;
62030;SDS011;62035;52.094;5.112;2023-05-21T03:35:59;6.93;;;3.83;;
62030;SDS011;62035;52.094;5.112;2023-05-21T03:38:27;5.43;;;3.80;;
62030;SDS011;62035;52.094;5.112;2023-05-21T03:40:55;8.32;;;4.35;;
62030;SDS011;62035;52.094;5.112;2023-05-21T03:43:23;8.25;;;3.50;;
62030;SDS011;62035;52.094;5.112;2023-05-21T03:45:50;8.88;;;3.90;;
62030;SDS011;62035;52.094;5.112;2023-05-21T03:48:20;7.78;;;3.88;;
62030;SDS011;62035;52.094;5.112;2023-05-21T03:50:48;5.22;;;3.50;;
62030;SDS011;62035;52.094;5.112;2023-05-21T03:53:16;8.35;;;4.03;;
62030;SDS011;62035;52.094;5.112;2023-05-21T03:55:45;6.38;;;3.55;;
62030;SDS011;62035;52.094;5.112;2023-05-21T03:58:19;7.75;;;3.70;;
62030;SDS011;62035;52.094;5.112;2023-05-21T04:00:47;6.55;;;4.10;;
62030;SDS011;62035;52.094;5.112;2023-05-21T04:03:15;7.97;;;4.20;;
62030;SDS011;62035;52.094;5.112;2023-05-21T04:05:43;5.85;;;4.07;;
62030;SDS011;62035;52.094;5.112;2023-05-21T04:08:10;5.32;;;3.58;;
62030;SDS011;62035;52.094;5.112;2023-05-21T04:10:38;6.25;;;3.55;;
62030;SDS011;62035;52.094;5.112;2023-05-21T04:13:07;11.32;;;4.05;;
62030;SDS011;62035;52.094;5.112;2023-05-21T04:15:34;7.05;;;3.72;;
62030;SDS011;62035;52.094;5.112;2023-05-21T04:18:03;8.07;;;3.70;;
62030;SDS011;62035;52.094;5.112;2023-05-21T04:20:31;5.05;;;3.40;;
62030;SDS011;62035;52.094;5.112;2023-05-21T04:22:59;6.65;;;3.60;;
62030;SDS011;62035;52.094;5.112;2023-05-21T04:25:27;6.28;;;3.58;;
62030;SDS011;62035;52.094;5.112;2023-05-21T04:27:55;5.88;;;3.72;;
62030;SDS011;62035;52.094;5.112;2023-05-21T04:30:24;6.75;;;3.75;;
62030;SDS011;62035;52.094;5.112;2023-05-21T04:32:51;5.05;;;3.38;;
62030;SDS011;62035;52.094;5.112;2023-05-21T04:35:19;6.47;;;3.60;;
62030;SDS011;62035;52.094;5.112;2023-05-21T04:37:48;7.68;;;3.58;;
62030;SDS011;62035;52.094;5.112;2023-05-21T04:40:16;6.43;;;3.67;;
62030;SDS011;62035;52.094;5.112;2023-05-21T04:42:49;5.45;;;3.47;;
62030;SDS011;62035;52.094;5.112;2023-05-21T04:45:16;5.18;;;3.50;;
62030;SDS011;62035;52.094;5.112;2023-05-21T04:47:46;5.05;;;3.60;;
62030;SDS011;62035;52.094;5.112;2023-05-21T04:50:13;8.25;;;3.88;;
62030;SDS011;62035;52.094;5.112;2023-05-21T04:52:41;5.97;;;3.33;;
62030;SDS011;62035;52.094;5.112;2023-05-21T04:55:10;7.65;;;3.70;;
62030;SDS011;62035;52.094;5.112;2023-05-21T04:57:38;9.00;;;3.75;;
62030;SDS011;62035;52.094;5.112;2023-05-21T05:00:06;6.38;;;3.35;;
62030;SDS011;62035;52.094;5.112;2023-05-21T05:02:35;6.40;;;3.63;;
62030;SDS011;62035;52.094;5.112;2023-05-21T05:05:04;5.47;;;3.53;;
62030;SDS011;62035;52.094;5.112;2023-05-21T05:07:32;5.85;;;3.65;;
62030;SDS011;62035;52.094;5.112;2023-05-21T05:10:00;5.28;;;3.13;;
62030;SDS011;62035;52.094;5.112;2023-05-21T05:12:27;5.88;;;3.58;;
62030;SDS011;62035;52.094;5.112;2023-05-21T05:14:55;7.60;;;3.38;;
62030;SDS011;62035;52.094;5.112;2023-05-21T05:17:22;5.72;;;3.30;;
62030;SDS011;62035;52.094;5.112;2023-05-21T05:19:50;5.72;;;3.50;;
62030;SDS011;62035;52.094;5.112;2023-05-21T05:22:19;6.60;;;3.60;;
62030;SDS011;62035;52.094;5.112;2023-05-21T05:24:47;5.55;;;3.53;;
62030;SDS011;62035;52.094;5.112;2023-05-21T05:27:14;8.55;;;3.70;;
62030;SDS011;62035;52.094;5.112;2023-05-21T05:29:42;10.38;;;3.60;;
62030;SDS011;62035;52.094;5.112;2023-05-21T05:32:10;4.18;;;3.33;;
62030;SDS011;62035;52.094;5.112;2023-05-21T05:34:38;6.05;;;3.20;;
62030;SDS011;62035;52.094;5.112;2023-05-21T05:37:07;11.60;;;3.25;;
62030;SDS011;62035;52.094;5.112;2023-05-21T05:39:36;6.97;;;3.40;;
62030;SDS011;62035;52.094;5.112;2023-05-21T05:42:04;6.65;;;4.13;;
62030;SDS011;62035;52.094;5.112;2023-05-21T05:44:31;8.82;;;3.90;;
62030;SDS011;62035;52.094;5.112;2023-05-21T05:46:59;7.35;;;4.20;;
62030;SDS011;62035;52.094;5.112;2023-05-21T05:49:26;7.07;;;3.58;;
62030;SDS011;62035;52.094;5.112;2023-05-21T05:51:54;7.28;;;4.15;;
62030;SDS011;62035;52.094;5.112;2023-05-21T05:54:21;7.13;;;3.92;;
62030;SDS011;62035;52.094;5.112;2023-05-21T05:56:50;8.60;;;4.03;;
62030;SDS011;62035;52.094;5.112;2023-05-21T05:59:18;5.47;;;3.80;;
62030;SDS011;62035;52.094;5.112;2023-05-21T06:01:45;6.28;;;3.60;;
62030;SDS011;62035;52.094;5.112;2023-05-21T06:04:13;8.90;;;4.10;;
62030;SDS011;62035;52.094;5.112;2023-05-21T06:06:41;6.85;;;4.03;;
62030;SDS011;62035;52.094;5.112;2023-05-21T06:09:08;6.50;;;3.83;;
62030;SDS011;62035;52.094;5.112;2023-05-21T06:11:37;9.02;;;4.25;;
62030;SDS011;62035;52.094;5.112;2023-05-21T06:14:06;6.35;;;4.10;;
62030;SDS011;62035;52.094;5.112;2023-05-21T06:16:33;8.95;;;4.40;;
62030;SDS011;62035;52.094;5.112;2023-05-21T06:19:01;6.32;;;4.07;;
62030;SDS011;62035;52.094;5.112;2023-05-21T06:21:29;7.30;;;4.10;;
62030;SDS011;62035;52.094;5.112;2023-05-21T06:23:58;7.82;;;4.38;;
62030;SDS011;62035;52.094;5.112;2023-05-21T06:26:25;5.20;;;3.80;;
62030;SDS011;62035;52.094;5.112;2023-05-21T06:28:53;9.40;;;4.18;;
62030;SDS011;62035;52.094;5.112;2023-05-21T06:31:22;7.15;;;4.20;;
62030;SDS011;62035;52.094;5.112;2023-05-21T06:33:50;6.00;;;4.03;;
62030;SDS011;62035;52.094;5.112;2023-05-21T06:36:17;6.68;;;4.07;;
62030;SDS011;62035;52.094;5.112;2023-05-21T06:38:46;7.40;;;4.20;;
62030;SDS011;62035;52.094;5.112;2023-05-21T06:41:13;8.25;;;4.05;;
62030;SDS011;62035;52.094;5.112;2023-05-21T06:43:41;5.38;;;4.00;;
62030;SDS011;62035;52.094;5.112;2023-05-21T06:46:09;6.35;;;4.28;;
62030;SDS011;62035;52.094;5.112;2023-05-21T06:48:37;11.50;;;4.57;;
62030;SDS011;62035;52.094;5.112;2023-05-21T06:51:05;6.65;;;4.63;;
62030;SDS011;62035;52.094;5.112;2023-05-21T06:53:32;7.63;;;4.53;;
62030;SDS011;62035;52.094;5.112;2023-05-21T06:56:00;11.15;;;4.40;;
62030;SDS011;62035;52.094;5.112;2023-05-21T06:58:28;7.07;;;4.18;;
62030;SDS011;62035;52.094;5.112;2023-05-21T07:00:56;10.57;;;4.72;;
62030;SDS011;62035;52.094;5.112;2023-05-21T07:03:23;11.50;;;4.68;;
62030;SDS011;62035;52.094;5.112;2023-05-21T07:05:53;12.02;;;4.82;;
62030;SDS011;62035;52.094;5.112;2023-05-21T07:08:21;9.30;;;4.68;;
62030;SDS011;62035;52.094;5.112;2023-05-21T07:10:48;7.65;;;4.50;;
62030;SDS011;62035;52.094;5.112;2023-05-21T07:13:16;9.65;;;4.70;;
62030;SDS011;62035;52.094;5.112;2023-05-21T07:15:43;8.68;;;5.10;;
62030;SDS011;62035;52.094;5.112;2023-05-21T07:18:11;11.40;;;4.55;;
62030;SDS011;62035;52.094;5.112;2023-05-21T07:20:39;7.15;;;4.72;;
62030;SDS011;62035;52.094;5.112;2023-05-21T07:23:07;8.90;;;4.72;;
62030;SDS011;62035;52.094;5.112;2023-05-21T07:25:35;9.18;;;4.93;;
62030;SDS011;62035;52.094;5.112;2023-05-21T07:28:03;11.65;;;5.40;;
62030;SDS011;62035;52.094;5.112;2023-05-21T07:30:31;8.45;;;4.63;;
62030;SDS011;62035;52.094;5.112;2023-05-21T07:32:58;9.43;;;4.68;;
62030;SDS011;62035;52.094;5.112;2023-05-21T07:35:26;9.75;;;4.78;;
62030;SDS011;62035;52.094;5.112;2023-05-21T07:37:53;9.20;;;4.50;;
62030;SDS011;62035;52.094;5.112;2023-05-21T07:40:22;7.50;;;4.45;;
62030;SDS011;62035;52.094;5.112;2023-05-21T07:42:50;8.15;;;4.47;;
62030;SDS011;62035;52.094;5.112;2023-05-21T07:45:18;8.90;;;4.70;;
62030;SDS011;62035;52.094;5.112;2023-05-21T07:47:45;7.55;;;4.60;;
62030;SDS011;62035;52.094;5.112;2023-05-21T07:50:13;8.38;;;4.55;;
62030;SDS011;62035;52.094;5.112;2023-05-21T07:52:41;10.45;;;5.03;;
62030;SDS011;62035;52.094;5.112;2023-05-21T07:55:08;9.10;;;4.78;;
62030;SDS011;62035;52.094;5.112;2023-05-21T07:57:37;9.32;;;5.25;;
62030;SDS011;62035;52.094;5.112;2023-05-21T08:00:05;7.70;;;4.53;;
62030;SDS011;62035;52.094;5.112;2023-05-21T08:02:35;8.50;;;4.50;;
62030;SDS011;62035;52.094;5.112;2023-05-21T08:05:03;12.75;;;4.85;;
62030;SDS011;62035;52.094;5.112;2023-05-21T08:07:32;9.48;;;4.90;;
62030;SDS011;62035;52.094;5.112;2023-05-21T08:09:59;7.38;;;4.43;;
62030;SDS011;62035;52.094;5.112;2023-05-21T08:12:27;7.22;;;4.50;;
62030;SDS011;62035;52.094;5.112;2023-05-21T08:14:56;7.22;;;4.90;;
62030;SDS011;62035;52.094;5.112;2023-05-21T08:17:24;7.82;;;4.60;;
62030;SDS011;62035;52.094;5.112;2023-05-21T08:19:53;9.57;;;4.57;;
62030;SDS011;62035;52.094;5.112;2023-05-21T08:22:20;8.07;;;4.57;;
62030;SDS011;62035;52.094;5.112;2023-05-21T08:24:49;7.28;;;4.80;;
62030;SDS011;62035;52.094;5.112;2023-05-21T08:27:16;7.28;;;4.80;;
62030;SDS011;62035;52.094;5.112;2023-05-21T08:29:44;7.85;;;4.95;;
62030;SDS011;62035;52.094;5.112;2023-05-21T08:32:13;7.93;;;5.05;;
62030;SDS011;62035;52.094;5.112;2023-05-21T08:34:41;7.65;;;4.93;;
62030;SDS011;62035;52.094;5.112;2023-05-21T08:37:08;6.18;;;4.57;;
62030;SDS011;62035;52.094;5.112;2023-05-21T08:39:36;10.35;;;5.43;;
62030;SDS011;62035;52.094;5.112;2023-05-21T08:42:07;7.55;;;5.32;;
62030;SDS011;62035;52.094;5.112;2023-05-21T08:44:42;9.18;;;5.07;;
62030;SDS011;62035;52.094;5.112;2023-05-21T08:47:18;11.43;;;5.22;;
62030;SDS011;62035;52.094;5.112;2023-05-21T08:49:53;10.90;;;5.07;;
62030;SDS011;62035;52.094;5.112;2023-05-21T08:52:21;9.90;;;4.45;;
62030;SDS011;62035;52.094;5.112;2023-05-21T08:54:51;8.95;;;4.80;;
62030;SDS011;62035;52.094;5.112;2023-05-21T08:57:20;7.80;;;4.35;;
62030;SDS011;62035;52.094;5.112;2023-05-21T08:59:53;7.13;;;4.88;;
62030;SDS011;62035;52.094;5.112;2023-05-21T09:02:22;7.95;;;5.05;;
62030;SDS011;62035;52.094;5.112;2023-05-21T09:04:50;8.10;;;4.95;;
62030;SDS011;62035;52.094;5.112;2023-05-21T09:07:23;10.18;;;5.03;;
62030;SDS011;62035;52.094;5.112;2023-05-21T09:09:54;8.82;;;5.20;;
62030;SDS011;62035;52.094;5.112;2023-05-21T09:12:23;13.13;;;5.50;;
62030;SDS011;62035;52.094;5.112;2023-05-21T09:14:52;8.90;;;5.20;;
62030;SDS011;62035;52.094;5.112;2023-05-21T09:17:24;8.35;;;5.07;;
62030;SDS011;62035;52.094;5.112;2023-05-21T09:20:04;9.38;;;5.18;;
62030;SDS011;62035;52.094;5.112;2023-05-21T09:22:35;10.30;;;4.80;;
62030;SDS011;62035;52.094;5.112;2023-05-21T09:25:06;8.32;;;4.90;;
62030;SDS011;62035;52.094;5.112;2023-05-21T09:27:35;8.10;;;5.20;;
62030;SDS011;62035;52.094;5.112;2023-05-21T09:30:04;6.85;;;4.90;;
62030;SDS011;62035;52.094;5.112;2023-05-21T09:32:39;8.48;;;5.18;;
62030;SDS011;62035;52.094;5.112;2023-05-21T09:35:08;7.93;;;4.93;;
62030;SDS011;62035;52.094;5.112;2023-05-21T09:37:38;11.63;;;5.82;;
62030;SDS011;62035;52.094;5.112;2023-05-21T09:40:09;8.18;;;5.13;;
62030;SDS011;62035;52.094;5.112;2023-05-21T09:42:40;9.00;;;4.80;;
62030;SDS011;62035;52.094;5.112;2023-05-21T09:45:09;11.43;;;5.07;;
62030;SDS011;62035;52.094;5.112;2023-05-21T09:47:40;11.55;;;4.32;;
62030;SDS011;62035;52.094;5.112;2023-05-21T09:52:37;8.80;;;4.93;;
62030;SDS011;62035;52.094;5.112;2023-05-21T09:55:05;9.52;;;5.60;;
62030;SDS011;62035;52.094;5.112;2023-05-21T09:57:40;10.95;;;5.38;;
62030;SDS011;62035;52.094;5.112;2023-05-21T10:00:09;8.68;;;5.05;;
62030;SDS011;62035;52.094;5.112;2023-05-21T10:02:46;10.52;;;5.57;;
62030;SDS011;62035;52.094;5.112;2023-05-21T10:05:15;9.02;;;5.30;;
62030;SDS011;62035;52.094;5.112;2023-05-21T10:07:44;6.90;;;4.75;;
62030;SDS011;62035;52.094;5.112;2023-05-21T10:10:18;9.50;;;4.63;;
62030;SDS011;62035;52.094;5.112;2023-05-21T10:12:49;7.63;;;4.57;;
62030;SDS011;62035;52.094;5.112;2023-05-21T10:15:23;8.80;;;5.57;;
62030;SDS011;62035;52.094;5.112;2023-05-21T10:20:24;7.30;;;4.68;;
62030;SDS011;62035;52.094;5.112;2023-05-21T10:22:52;11.60;;;5.15;;
62030;SDS011;62035;52.094;5.112;2023-05-21T10:25:21;7.20;;;4.53;;
62030;SDS011;62035;52.094;5.112;2023-05-21T10:27:52;11.93;;;5.27;;
62030;SDS011;62035;52.094;5.112;2023-05-21T10:30:23;10.30;;;4.78;;
62030;SDS011;62035;52.094;5.112;2023-05-21T10:32:51;8.10;;;4.97;;
62030;SDS011;62035;52.094;5.112;2023-05-21T10:35:24;8.68;;;5.00;;
62030;SDS011;62035;52.094;5.112;2023-05-21T10:37:53;8.05;;;4.93;;
62030;SDS011;62035;52.094;5.112;2023-05-21T10:40:23;12.65;;;5.30;;
62030;SDS011;62035;52.094;5.112;2023-05-21T10:46:08;8.02;;;5.28;;
62030;SDS011;62035;52.094;5.112;2023-05-21T10:51:52;7.82;;;4.35;;
62030;SDS011;62035;52.094;5.112;2023-05-21T10:54:37;9.82;;;4.25;;
62030;SDS011;62035;52.094;5.112;2023-05-21T11:00:28;7.22;;;4.50;;
62030;SDS011;62035;52.094;5.112;2023-05-21T11:02:57;8.77;;;4.70;;
62030;SDS011;62035;52.094;5.112;2023-05-21T11:05:38;12.63;;;5.28;;
62030;SDS011;62035;52.094;5.112;2023-05-21T11:08:23;9.60;;;4.68;;
62030;SDS011;62035;52.094;5.112;2023-05-21T11:10:53;11.13;;;4.82;;
62030;SDS011;62035;52.094;5.112;2023-05-21T11:13:23;8.00;;;4.88;;
62030;SDS011;62035;52.094;5.112;2023-05-21T11:18:56;11.40;;;4.90;;
62030;SDS011;62035;52.094;5.112;2023-05-21T11:21:28;11.60;;;4.90;;
62030;SDS011;62035;52.094;5.112;2023-05-21T11:24:00;8.02;;;4.80;;
62030;SDS011;62035;52.094;5.112;2023-05-21T11:29:35;7.88;;;4.57;;
62030;SDS011;62035;52.094;5.112;2023-05-21T11:32:09;9.20;;;4.93;;
62030;SDS011;62035;52.094;5.112;2023-05-21T11:34:45;8.98;;;5.25;;
62030;SDS011;62035;52.094;5.112;2023-05-21T11:37:28;9.07;;;5.30;;
62030;SDS011;62035;52.094;5.112;2023-05-21T11:43:01;10.63;;;5.47;;
62030;SDS011;62035;52.094;5.112;2023-05-21T11:45:29;12.52;;;5.45;;
62030;SDS011;62035;52.094;5.112;2023-05-21T11:47:58;9.00;;;5.00;;
62030;SDS011;62035;52.094;5.112;2023-05-21T11:50:26;12.32;;;5.30;;
62030;SDS011;62035;52.094;5.112;2023-05-21T11:52:56;7.43;;;5.13;;
62030;SDS011;62035;52.094;5.112;2023-05-21T11:55:25;8.85;;;5.60;;
62030;SDS011;62035;52.094;5.112;2023-05-21T11:57:53;9.07;;;4.90;;
62030;SDS011;62035;52.094;5.112;2023-05-21T12:00:21;10.32;;;5.30;;
62030;SDS011;62035;52.094;5.112;2023-05-21T12:02:49;9.98;;;5.00;;
62030;SDS011;62035;52.094;5.112;2023-05-21T12:05:20;8.85;;;4.68;;
62030;SDS011;62035;52.094;5.112;2023-05-21T12:07:48;11.95;;;5.53;;
62030;SDS011;62035;52.094;5.112;2023-05-21T12:10:19;9.38;;;5.10;;
62030;SDS011;62035;52.094;5.112;2023-05-21T12:12:48;9.93;;;5.22;;
62030;SDS011;62035;52.094;5.112;2023-05-21T12:15:16;9.43;;;5.28;;
62030;SDS011;62035;52.094;5.112;2023-05-21T12:17:48;10.98;;;5.00;;
62030;SDS011;62035;52.094;5.112;2023-05-21T12:22:43;11.00;;;5.55;;
62030;SDS011;62035;52.094;5.112;2023-05-21T12:25:11;13.00;;;5.00;;
62030;SDS011;62035;52.094;5.112;2023-05-21T12:27:40;7.68;;;4.55;;
62030;SDS011;62035;52.094;5.112;2023-05-21T12:30:09;9.40;;;5.53;;
62030;SDS011;62035;52.094;5.112;2023-05-21T12:32:39;8.23;;;4.65;;
62030;SDS011;62035;52.094;5.112;2023-05-21T12:35:09;8.02;;;4.28;;
62030;SDS011;62035;52.094;5.112;2023-05-21T12:37:47;9.38;;;4.80;;
62030;SDS011;62035;52.094;5.112;2023-05-21T12:40:16;8.25;;;4.78;;
62030;SDS011;62035;52.094;5.112;2023-05-21T12:42:45;8.35;;;4.32;;
62030;SDS011;62035;52.094;5.112;2023-05-21T12:45:13;15.00;;;4.97;;
62030;SDS011;62035;52.094;5.112;2023-05-21T12:47:45;9.63;;;4.55;;
62030;SDS011;62035;52.094;5.112;2023-05-21T12:50:20;10.18;;;4.50;;
62030;SDS011;62035;52.094;5.112;2023-05-21T12:52:48;12.25;;;5.00;;
62030;SDS011;62035;52.094;5.112;2023-05-21T12:57:57;14.00;;;5.40;;
62030;SDS011;62035;52.094;5.112;2023-05-21T13:00:30;10.98;;;4.80;;
62030;SDS011;62035;52.094;5.112;2023-05-21T13:02:58;7.85;;;4.68;;
62030;SDS011;62035;52.094;5.112;2023-05-21T13:05:26;8.15;;;4.88;;
62030;SDS011;62035;52.094;5.112;2023-05-21T13:07:54;6.15;;;4.38;;
62030;SDS011;62035;52.094;5.112;2023-05-21T13:10:21;8.00;;;4.70;;
62030;SDS011;62035;52.094;5.112;2023-05-21T13:12:51;9.35;;;4.68;;
62030;SDS011;62035;52.094;5.112;2023-05-21T13:15:18;18.15;;;4.97;;
62030;SDS011;62035;52.094;5.112;2023-05-21T13:17:46;20.35;;;6.20;;
62030;SDS011;62035;52.094;5.112;2023-05-21T13:20:14;9.23;;;4.53;;
62030;SDS011;62035;52.094;5.112;2023-05-21T13:22:46;9.30;;;4.82;;
62030;SDS011;62035;52.094;5.112;2023-05-21T13:25:17;7.28;;;4.57;;
62030;SDS011;62035;52.094;5.112;2023-05-21T13:27:46;11.93;;;4.60;;
62030;SDS011;62035;52.094;5.112;2023-05-21T13:30:16;8.77;;;4.93;;
62030;SDS011;62035;52.094;5.112;2023-05-21T13:32:44;7.32;;;4.68;;
62030;SDS011;62035;52.094;5.112;2023-05-21T13:35:12;15.25;;;5.32;;
62030;SDS011;62035;52.094;5.112;2023-05-21T13:37:41;9.00;;;4.68;;
62030;SDS011;62035;52.094;5.112;2023-05-21T13:40:09;8.10;;;4.93;;
62030;SDS011;62035;52.094;5.112;2023-05-21T13:42:40;8.20;;;4.20;;
62030;SDS011;62035;52.094;5.112;2023-05-21T13:45:09;9.48;;;5.00;;
62030;SDS011;62035;52.094;5.112;2023-05-21T13:47:40;11.18;;;4.88;;
62030;SDS011;62035;52.094;5.112;2023-05-21T13:50:09;11.65;;;4.45;;
62030;SDS011;62035;52.094;5.112;2023-05-21T13:52:38;7.35;;;4.03;;
62030;SDS011;62035;52.094;5.112;2023-05-21T13:55:06;7.13;;;4.20;;
62030;SDS011;62035;52.094;5.112;2023-05-21T13:57:35;9.82;;;4.60;;
62030;SDS011;62035;52.094;5.112;2023-05-21T14:00:03;7.13;;;4.65;;
62030;SDS011;62035;52.094;5.112;2023-05-21T14:02:33;12.80;;;4.82;;
62030;SDS011;62035;52.094;5.112;2023-05-21T14:05:02;7.95;;;4.45;;
62030;SDS011;62035;52.094;5.112;2023-05-21T14:07:31;11.23;;;4.35;;
62030;SDS011;62035;52.094;5.112;2023-05-21T14:09:58;12.23;;;4.45;;
62030;SDS011;62035;52.094;5.112;2023-05-21T14:12:26;8.52;;;4.28;;
62030;SDS011;62035;52.094;5.112;2023-05-21T14:14:54;10.57;;;3.90;;
62030;SDS011;62035;52.094;5.112;2023-05-21T14:17:21;8.15;;;4.28;;
62030;SDS011;62035;52.094;5.112;2023-05-21T14:19:49;6.55;;;4.10;;
62030;SDS011;62035;52.094;5.112;2023-05-21T14:22:18;10.05;;;4.40;;
62030;SDS011;62035;52.094;5.112;2023-05-21T14:24:45;10.50;;;4.57;;
62030;SDS011;62035;52.094;5.112;2023-05-21T14:27:13;8.50;;;4.10;;
62030;SDS011;62035;52.094;5.112;2023-05-21T14:29:41;8.43;;;4.47;;
62030;SDS011;62035;52.094;5.112;2023-05-21T14:32:09;7.35;;;3.80;;
62030;SDS011;62035;52.094;5.112;2023-05-21T14:34:36;7.90;;;3.72;;
62030;SDS011;62035;52.094;5.112;2023-05-21T14:37:05;11.10;;;4.15;;
62030;SDS011;62035;52.094;5.112;2023-05-21T14:39:34;7.95;;;3.70;;
62030;SDS011;62035;52.094;5.112;2023-05-21T14:42:01;10.25;;;3.88;;
62030;SDS011;62035;52.094;5.112;2023-05-21T14:44:30;9.43;;;3.83;;
62030;SDS011;62035;52.094;5.112;2023-05-21T14:46:57;9.25;;;4.03;;
62030;SDS011;62035;52.094;5.112;2023-05-21T14:49:25;9.05;;;4.32;;
62030;SDS011;62035;52.094;5.112;2023-05-21T14:51:53;9.88;;;4.38;;
62030;SDS011;62035;52.094;5.112;2023-05-21T14:54:20;13.60;;;4.13;;
62030;SDS011;62035;52.094;5.112;2023-05-21T14:56:49;7.63;;;3.67;;
62030;SDS011;62035;52.094;5.112;2023-05-21T14:59:17;8.40;;;3.80;;
62030;SDS011;62035;52.094;5.112;2023-05-21T15:01:44;5.60;;;3.58;;
62030;SDS011;62035;52.094;5.112;2023-05-21T15:04:12;11.88;;;4.13;;
62030;SDS011;62035;52.094;5.112;2023-05-21T15:06:40;13.60;;;4.40;;
62030;SDS011;62035;52.094;5.112;2023-05-21T15:09:07;10.38;;;4.20;;
62030;SDS011;62035;52.094;5.112;2023-05-21T15:11:35;10.30;;;3.90;;
62030;SDS011;62035;52.094;5.112;2023-05-21T15:14:05;8.77;;;3.97;;
62030;SDS011;62035;52.094;5.112;2023-05-21T15:16:33;12.63;;;4.43;;
62030;SDS011;62035;52.094;5.112;2023-05-21T15:19:00;8.50;;;4.63;;
62030;SDS011;62035;52.094;5.112;2023-05-21T15:21:29;11.68;;;3.80;;
62030;SDS011;62035;52.094;5.112;2023-05-21T15:23:57;7.80;;;3.92;;
62030;SDS011;62035;52.094;5.112;2023-05-21T15:26:24;8.30;;;3.85;;